Erie, Michigan
Current Conditions -  °F | °C
As of 3:35 AM on Tuesday 21 Oct 2014 (Local Time) from KDUH Reporting Station
Overcast Overcast  
Wind Chill: 50°   Ceiling: 4900
Heat Index: 50°   Visibility: 10mi
Dew Point: 45°   Wind: 3mph
Humidity: 82%   Direction: 330°NNW
Pressure: 29.91"   Gusts: NA
Location:  41.79°N, 83.5°W
Report Text: KDUH 210735Z AUTO 33003KT 10SM SCT026 OVC049 10/07 A2991 RMK AO2
Loading
Personal Weather Stations






























Interactive Weather Map
Tropical Storm Tracking
New forecast layout! Learn more

10-Day Weather Forecast

Advertisements
Track Severe Weather on mobile